sensor_id;sensor_type;location;lat;lon;timestamp;pressure;altitude;pressure_sealevel;temperature;humidity
81354;BME280;70810;52.038;8.524;2024-01-30T00:02:11;101479.47;;;3.43;86.77
81354;BME280;70810;52.038;8.524;2024-01-30T00:04:38;101486.53;;;3.36;87.51
81354;BME280;70810;52.038;8.524;2024-01-30T00:13:21;101479.44;;;3.48;87.18
81354;BME280;70810;52.038;8.524;2024-01-30T00:15:48;101475.94;;;3.36;87.83
81354;BME280;70810;52.038;8.524;2024-01-30T00:18:14;101482.13;;;3.37;87.86
81354;BME280;70810;52.038;8.524;2024-01-30T00:20:41;101475.94;;;3.38;87.86
81354;BME280;70810;52.038;8.524;2024-01-30T00:23:08;101475.06;;;3.34;87.65
81354;BME280;70810;52.038;8.524;2024-01-30T00:25:35;101478.56;;;3.27;87.64
81354;BME280;70810;52.038;8.524;2024-01-30T00:28:02;101472.38;;;3.24;87.87
81354;BME280;70810;52.038;8.524;2024-01-30T00:30:33;101475.94;;;3.36;87.62
81354;BME280;70810;52.038;8.524;2024-01-30T00:32:59;101461.78;;;3.21;87.55
81354;BME280;70810;52.038;8.524;2024-01-30T00:35:26;101474.16;;;3.39;87.75
81354;BME280;70810;52.038;8.524;2024-01-30T00:37:54;101472.38;;;3.39;87.79
81354;BME280;70810;52.038;8.524;2024-01-30T00:40:21;101476.81;;;3.26;87.64
81354;BME280;70810;52.038;8.524;2024-01-30T00:42:47;101471.50;;;3.23;87.40
81354;BME280;70810;52.038;8.524;2024-01-30T00:45:14;101483.88;;;3.20;87.86
81354;BME280;70810;52.038;8.524;2024-01-30T00:47:42;101477.69;;;3.14;87.62
81354;BME280;70810;52.038;8.524;2024-01-30T00:50:09;101480.34;;;3.13;88.26
81354;BME280;70810;52.038;8.524;2024-01-30T00:52:36;101481.22;;;3.13;88.33
81354;BME280;70810;52.038;8.524;2024-01-30T00:55:05;101485.63;;;3.13;88.42
81354;BME280;70810;52.038;8.524;2024-01-30T00:57:32;101461.78;;;2.99;87.94
81354;BME280;70810;52.038;8.524;2024-01-30T00:59:59;101478.56;;;3.29;88.48
81354;BME280;70810;52.038;8.524;2024-01-30T01:02:25;101483.88;;;3.32;88.52
81354;BME280;70810;52.038;8.524;2024-01-30T01:04:53;101481.22;;;3.13;88.13
81354;BME280;70810;52.038;8.524;2024-01-30T01:07:20;101477.69;;;3.13;87.92
81354;BME280;70810;52.038;8.524;2024-01-30T01:09:46;101483.00;;;3.14;87.70
81354;BME280;70810;52.038;8.524;2024-01-30T01:12:13;101475.03;;;3.11;88.00
81354;BME280;70810;52.038;8.524;2024-01-30T01:14:41;101478.56;;;3.18;87.89
81354;BME280;70810;52.038;8.524;2024-01-30T01:17:07;101476.81;;;3.11;87.77
81354;BME280;70810;52.038;8.524;2024-01-30T01:19:34;101473.25;;;3.13;88.19
81354;BME280;70810;52.038;8.524;2024-01-30T01:22:02;101472.38;;;3.19;88.03
81354;BME280;70810;52.038;8.524;2024-01-30T01:24:30;101472.38;;;3.14;88.09
81354;BME280;70810;52.038;8.524;2024-01-30T01:26:58;101468.84;;;3.23;88.00
81354;BME280;70810;52.038;8.524;2024-01-30T01:29:25;101467.06;;;3.19;87.95
81354;BME280;70810;52.038;8.524;2024-01-30T01:31:54;101469.75;;;3.16;88.34
81354;BME280;70810;52.038;8.524;2024-01-30T01:34:21;101424.66;;;2.97;88.19
81354;BME280;70810;52.038;8.524;2024-01-30T01:36:47;101458.22;;;3.15;88.45
81354;BME280;70810;52.038;8.524;2024-01-30T01:39:15;101467.94;;;3.09;88.63
81354;BME280;70810;52.038;8.524;2024-01-30T01:41:42;101465.31;;;3.04;89.09
81354;BME280;70810;52.038;8.524;2024-01-30T01:44:10;101465.31;;;3.12;89.04
81354;BME280;70810;52.038;8.524;2024-01-30T01:46:37;101466.19;;;3.06;88.56
81354;BME280;70810;52.038;8.524;2024-01-30T01:49:05;101462.66;;;3.13;88.54
81354;BME280;70810;52.038;8.524;2024-01-30T01:51:34;101455.59;;;3.09;88.73
81354;BME280;70810;52.038;8.524;2024-01-30T01:54:03;101446.75;;;3.03;88.54
81354;BME280;70810;52.038;8.524;2024-01-30T01:56:33;101448.50;;;3.04;88.73
81354;BME280;70810;52.038;8.524;2024-01-30T01:59:04;101441.44;;;3.01;88.81
81354;BME280;70810;52.038;8.524;2024-01-30T02:01:32;101433.50;;;3.04;88.89
81354;BME280;70810;52.038;8.524;2024-01-30T02:03:59;101442.34;;;3.09;88.93
81354;BME280;70810;52.038;8.524;2024-01-30T02:06:26;101443.22;;;3.02;89.56
81354;BME280;70810;52.038;8.524;2024-01-30T02:08:53;101439.66;;;3.14;88.85
81354;BME280;70810;52.038;8.524;2024-01-30T02:11:20;101459.09;;;3.04;89.19
81354;BME280;70810;52.038;8.524;2024-01-30T02:13:48;101441.47;;;3.06;89.04
81354;BME280;70810;52.038;8.524;2024-01-30T02:16:15;101437.94;;;3.02;89.13
81354;BME280;70810;52.038;8.524;2024-01-30T02:18:42;101437.00;;;2.89;89.39
81354;BME280;70810;52.038;8.524;2024-01-30T02:21:14;101435.22;;;2.88;89.25
81354;BME280;70810;52.038;8.524;2024-01-30T02:23:41;101436.13;;;2.87;88.90
81354;BME280;70810;52.038;8.524;2024-01-30T02:26:09;101431.69;;;2.83;89.44
81354;BME280;70810;52.038;8.524;2024-01-30T02:28:36;101426.41;;;3.00;89.28
81354;BME280;70810;52.038;8.524;2024-01-30T02:31:03;101431.72;;;3.05;89.09
81354;BME280;70810;52.038;8.524;2024-01-30T02:33:31;101427.28;;;3.04;89.23
81354;BME280;70810;52.038;8.524;2024-01-30T02:35:58;101422.91;;;3.04;89.35
81354;BME280;70810;52.038;8.524;2024-01-30T02:38:26;101427.31;;;3.10;89.49
81354;BME280;70810;52.038;8.524;2024-01-30T02:40:54;101425.56;;;3.24;88.83
81354;BME280;70810;52.038;8.524;2024-01-30T02:43:20;101423.75;;;3.17;88.87
81354;BME280;70810;52.038;8.524;2024-01-30T02:45:47;101418.47;;;3.14;89.13
81354;BME280;70810;52.038;8.524;2024-01-30T02:48:13;101403.47;;;2.99;89.23
81354;BME280;70810;52.038;8.524;2024-01-30T02:50:40;101406.97;;;2.99;89.48
81354;BME280;70810;52.038;8.524;2024-01-30T02:53:07;101414.06;;;2.96;89.76
81354;BME280;70810;52.038;8.524;2024-01-30T02:55:35;101398.16;;;3.08;89.82
81354;BME280;70810;52.038;8.524;2024-01-30T02:58:01;101392.84;;;3.34;91.01
81354;BME280;70810;52.038;8.524;2024-01-30T03:00:27;101394.56;;;3.59;91.91
81354;BME280;70810;52.038;8.524;2024-01-30T03:02:56;101389.22;;;3.79;92.22
81354;BME280;70810;52.038;8.524;2024-01-30T03:05:23;101382.06;;;3.98;91.42
81354;BME280;70810;52.038;8.524;2024-01-30T03:07:50;101378.41;;;4.23;91.75
81354;BME280;70810;52.038;8.524;2024-01-30T03:10:16;101379.97;;;4.60;92.55
81354;BME280;70810;52.038;8.524;2024-01-30T03:12:52;101371.88;;;4.77;91.47
81354;BME280;70810;52.038;8.524;2024-01-30T03:15:19;101370.84;;;4.96;91.63
81354;BME280;70810;52.038;8.524;2024-01-30T03:17:45;101365.31;;;5.21;91.66
81354;BME280;70810;52.038;8.524;2024-01-30T03:20:12;101358.94;;;5.42;91.51
81354;BME280;70810;52.038;8.524;2024-01-30T03:22:39;101361.41;;;5.59;90.25
81354;BME280;70810;52.038;8.524;2024-01-30T03:25:06;101362.03;;;5.84;89.70
81354;BME280;70810;52.038;8.524;2024-01-30T03:27:33;101367.16;;;6.03;88.46
81354;BME280;70810;52.038;8.524;2024-01-30T03:30:01;101360.81;;;6.11;87.65
81354;BME280;70810;52.038;8.524;2024-01-30T03:32:28;101360.81;;;6.11;87.90
81354;BME280;70810;52.038;8.524;2024-01-30T03:34:54;101346.56;;;6.15;87.53
81354;BME280;70810;52.038;8.524;2024-01-30T03:37:22;101357.75;;;6.41;86.84
81354;BME280;70810;52.038;8.524;2024-01-30T03:39:48;101350.47;;;6.53;85.88
81354;BME280;70810;52.038;8.524;2024-01-30T03:42:15;101344.22;;;6.54;85.39
81354;BME280;70810;52.038;8.524;2024-01-30T03:44:42;101343.31;;;6.57;85.96
81354;BME280;70810;52.038;8.524;2024-01-30T03:47:10;101346.88;;;6.56;85.29
81354;BME280;70810;52.038;8.524;2024-01-30T03:49:37;101348.66;;;6.57;85.49
81354;BME280;70810;52.038;8.524;2024-01-30T03:52:03;101344.16;;;6.61;85.49
81354;BME280;70810;52.038;8.524;2024-01-30T03:54:30;101340.56;;;6.62;85.29
81354;BME280;70810;52.038;8.524;2024-01-30T03:56:57;101342.34;;;6.63;84.91
81354;BME280;70810;52.038;8.524;2024-01-30T03:59:23;101338.81;;;6.61;85.13
81354;BME280;70810;52.038;8.524;2024-01-30T04:01:50;101344.13;;;6.62;84.69
81354;BME280;70810;52.038;8.524;2024-01-30T04:04:18;101336.91;;;6.70;84.67
81354;BME280;70810;52.038;8.524;2024-01-30T04:06:46;101341.31;;;6.71;84.45
81354;BME280;70810;52.038;8.524;2024-01-30T04:09:13;101331.47;;;6.75;83.85
81354;BME280;70810;52.038;8.524;2024-01-30T04:11:40;101323.50;;;6.73;84.06
81354;BME280;70810;52.038;8.524;2024-01-30T04:14:06;101327.06;;;6.72;84.36
81354;BME280;70810;52.038;8.524;2024-01-30T04:16:33;101323.56;;;6.70;84.21
81354;BME280;70810;52.038;8.524;2024-01-30T04:19:00;101330.69;;;6.68;84.73
81354;BME280;70810;52.038;8.524;2024-01-30T04:21:30;101335.03;;;6.76;84.01
81354;BME280;70810;52.038;8.524;2024-01-30T04:23:57;101332.41;;;6.72;84.36
81354;BME280;70810;52.038;8.524;2024-01-30T04:26:24;101335.97;;;6.71;84.00
81354;BME280;70810;52.038;8.524;2024-01-30T04:28:50;101335.06;;;6.72;83.92
81354;BME280;70810;52.038;8.524;2024-01-30T04:31:17;101338.75;;;6.65;84.69
81354;BME280;70810;52.038;8.524;2024-01-30T04:33:44;101310.34;;;6.63;83.85
81354;BME280;70810;52.038;8.524;2024-01-30T04:36:11;101323.59;;;6.67;84.23
81354;BME280;70810;52.038;8.524;2024-01-30T04:38:39;101325.31;;;6.71;83.96
81354;BME280;70810;52.038;8.524;2024-01-30T04:41:05;101327.94;;;6.75;84.17
81354;BME280;70810;52.038;8.524;2024-01-30T04:43:32;101325.28;;;6.73;84.09
81354;BME280;70810;52.038;8.524;2024-01-30T04:45:59;101336.00;;;6.68;83.76
81354;BME280;70810;52.038;8.524;2024-01-30T04:48:26;101327.22;;;6.63;83.82
81354;BME280;70810;52.038;8.524;2024-01-30T04:50:55;101334.38;;;6.60;84.55
81354;BME280;70810;52.038;8.524;2024-01-30T04:53:30;101337.03;;;6.60;84.76
81354;BME280;70810;52.038;8.524;2024-01-30T04:55:58;101339.59;;;6.67;84.12
81354;BME280;70810;52.038;8.524;2024-01-30T04:58:25;101338.78;;;6.62;84.42
81354;BME280;70810;52.038;8.524;2024-01-30T05:00:51;101329.97;;;6.59;84.34
81354;BME280;70810;52.038;8.524;2024-01-30T05:03:18;101331.66;;;6.63;84.00
81354;BME280;70810;52.038;8.524;2024-01-30T05:05:46;101339.59;;;6.69;84.55
81354;BME280;70810;52.038;8.524;2024-01-30T05:08:12;101330.75;;;6.65;84.30
81354;BME280;70810;52.038;8.524;2024-01-30T05:10:39;101335.19;;;6.65;84.69
81354;BME280;70810;52.038;8.524;2024-01-30T05:13:07;101328.97;;;6.66;84.34
81354;BME280;70810;52.038;8.524;2024-01-30T05:15:34;101336.97;;;6.66;84.55
81354;BME280;70810;52.038;8.524;2024-01-30T05:18:00;101329.97;;;6.59;83.73
81354;BME280;70810;52.038;8.524;2024-01-30T05:20:30;101324.66;;;6.57;84.64
81354;BME280;70810;52.038;8.524;2024-01-30T05:22:57;101322.13;;;6.48;84.71
81354;BME280;70810;52.038;8.524;2024-01-30T05:25:23;101339.72;;;6.60;84.60
81354;BME280;70810;52.038;8.524;2024-01-30T05:27:50;101326.38;;;6.60;84.66
81354;BME280;70810;52.038;8.524;2024-01-30T05:30:26;101323.75;;;6.57;84.48
81354;BME280;70810;52.038;8.524;2024-01-30T05:32:57;101325.53;;;6.56;84.78
81354;BME280;70810;52.038;8.524;2024-01-30T05:35:24;101322.69;;;6.67;84.12
81354;BME280;70810;52.038;8.524;2024-01-30T05:37:51;101318.31;;;6.64;84.52
81354;BME280;70810;52.038;8.524;2024-01-30T05:40:20;101321.03;;;6.61;84.49
81354;BME280;70810;52.038;8.524;2024-01-30T05:42:47;101318.25;;;6.69;84.36
81354;BME280;70810;52.038;8.524;2024-01-30T05:45:14;101314.56;;;6.78;84.30
81354;BME280;70810;52.038;8.524;2024-01-30T05:47:42;101309.19;;;6.81;83.73
81354;BME280;70810;52.038;8.524;2024-01-30T05:50:09;101309.09;;;6.84;83.71
81354;BME280;70810;52.038;8.524;2024-01-30T05:52:35;101296.72;;;6.81;83.58
81354;BME280;70810;52.038;8.524;2024-01-30T05:55:02;101301.16;;;6.82;83.61
81354;BME280;70810;52.038;8.524;2024-01-30T05:57:29;101295.88;;;6.79;83.86
81354;BME280;70810;52.038;8.524;2024-01-30T05:59:56;101294.91;;;6.82;83.67
81354;BME280;70810;52.038;8.524;2024-01-30T06:02:23;101299.47;;;6.75;83.93
81354;BME280;70810;52.038;8.524;2024-01-30T06:04:51;101297.59;;;6.82;84.11
81354;BME280;70810;52.038;8.524;2024-01-30T06:07:17;101303.88;;;6.79;83.51
81354;BME280;70810;52.038;8.524;2024-01-30T06:09:47;101301.25;;;6.76;83.71
81354;BME280;70810;52.038;8.524;2024-01-30T06:12:16;101309.25;;;6.75;84.08
81354;BME280;70810;52.038;8.524;2024-01-30T06:14:43;101308.28;;;6.79;83.82
81354;BME280;70810;52.038;8.524;2024-01-30T06:17:09;101311.09;;;6.72;84.03
81354;BME280;70810;52.038;8.524;2024-01-30T06:19:37;101307.34;;;6.83;83.75
81354;BME280;70810;52.038;8.524;2024-01-30T06:22:05;101305.47;;;6.89;83.45
81354;BME280;70810;52.038;8.524;2024-01-30T06:24:32;101302.00;;;6.84;83.62
81354;BME280;70810;52.038;8.524;2024-01-30T06:26:59;101301.22;;;6.78;83.62
81354;BME280;70810;52.038;8.524;2024-01-30T06:29:28;101291.59;;;6.69;83.83
81354;BME280;70810;52.038;8.524;2024-01-30T06:32:03;101305.72;;;6.74;84.20
81354;BME280;70810;52.038;8.524;2024-01-30T06:34:56;101305.84;;;6.66;83.98
81354;BME280;70810;52.038;8.524;2024-01-30T06:37:43;101308.63;;;6.59;84.36
81354;BME280;70810;52.038;8.524;2024-01-30T06:40:12;101305.84;;;6.65;84.46
81354;BME280;70810;52.038;8.524;2024-01-30T06:42:39;101307.59;;;6.67;84.63
81354;BME280;70810;52.038;8.524;2024-01-30T06:45:07;101309.31;;;6.71;84.95
81354;BME280;70810;52.038;8.524;2024-01-30T06:47:34;101303.16;;;6.68;84.47
81354;BME280;70810;52.038;8.524;2024-01-30T06:50:01;101310.25;;;6.69;84.69
81354;BME280;70810;52.038;8.524;2024-01-30T06:52:32;101308.44;;;6.71;84.56
81354;BME280;70810;52.038;8.524;2024-01-30T06:55:02;101309.09;;;6.84;83.89
81354;BME280;70810;52.038;8.524;2024-01-30T06:57:33;101301.25;;;6.76;84.14
81354;BME280;70810;52.038;8.524;2024-01-30T07:00:02;101309.94;;;6.87;83.78
81354;BME280;70810;52.038;8.524;2024-01-30T07:02:32;101304.53;;;6.90;83.38
81354;BME280;70810;52.038;8.524;2024-01-30T07:05:03;101306.50;;;6.81;83.63
81354;BME280;70810;52.038;8.524;2024-01-30T07:07:30;101296.78;;;6.77;84.30
81354;BME280;70810;52.038;8.524;2024-01-30T07:12:51;101298.50;;;6.81;84.44
81354;BME280;70810;52.038;8.524;2024-01-30T07:15:18;101302.00;;;6.84;84.30
81354;BME280;70810;52.038;8.524;2024-01-30T07:17:47;101300.16;;;6.88;84.50
81354;BME280;70810;52.038;8.524;2024-01-30T07:20:15;101309.78;;;6.97;83.75
81354;BME280;70810;52.038;8.524;2024-01-30T07:22:42;101313.00;;;7.16;83.28
81354;BME280;70810;52.038;8.524;2024-01-30T07:25:09;101313.78;;;7.21;83.14
81354;BME280;70810;52.038;8.524;2024-01-30T07:27:36;101312.88;;;7.23;82.76
81354;BME280;70810;52.038;8.524;2024-01-30T07:30:05;101316.34;;;7.28;82.54
81354;BME280;70810;52.038;8.524;2024-01-30T07:32:32;101312.63;;;7.36;82.22
81354;BME280;70810;52.038;8.524;2024-01-30T07:35:00;101312.28;;;7.54;81.39
81354;BME280;70810;52.038;8.524;2024-01-30T07:37:27;101315.00;;;7.51;81.71
81354;BME280;70810;52.038;8.524;2024-01-30T07:39:54;101316.75;;;7.54;81.69
81354;BME280;70810;52.038;8.524;2024-01-30T07:42:20;101316.63;;;7.60;81.35
81354;BME280;70810;52.038;8.524;2024-01-30T07:44:47;101318.38;;;7.61;81.32
81354;BME280;70810;52.038;8.524;2024-01-30T07:47:15;101310.50;;;7.55;81.45
81354;BME280;70810;52.038;8.524;2024-01-30T07:49:43;101305.16;;;7.55;80.68
81354;BME280;70810;52.038;8.524;2024-01-30T07:52:09;101314.88;;;7.59;80.83
81354;BME280;70810;52.038;8.524;2024-01-30T07:54:37;101298.66;;;7.68;81.12
81354;BME280;70810;52.038;8.524;2024-01-30T07:57:04;101313.78;;;7.69;80.88
81354;BME280;70810;52.038;8.524;2024-01-30T07:59:31;101309.22;;;7.74;80.95
81354;BME280;70810;52.038;8.524;2024-01-30T08:01:58;101313.41;;;7.88;79.85
81354;BME280;70810;52.038;8.524;2024-01-30T08:04:30;101313.44;;;7.86;80.42
81354;BME280;70810;52.038;8.524;2024-01-30T08:06:57;101312.50;;;7.87;79.90
81354;BME280;70810;52.038;8.524;2024-01-30T08:09:28;101304.47;;;7.89;79.37
81354;BME280;70810;52.038;8.524;2024-01-30T08:12:25;101311.38;;;7.99;79.32
81354;BME280;70810;52.038;8.524;2024-01-30T08:15:11;101313.91;;;8.05;79.95
81354;BME280;70810;52.038;8.524;2024-01-30T08:17:41;101298.78;;;8.04;79.16
81354;BME280;70810;52.038;8.524;2024-01-30T08:20:10;101293.47;;;8.02;78.91
81354;BME280;70810;52.038;8.524;2024-01-30T08:22:38;101302.97;;;8.16;78.83
81354;BME280;70810;52.038;8.524;2024-01-30T08:25:07;101292.22;;;8.19;78.45
81354;BME280;70810;52.038;8.524;2024-01-30T08:27:35;101299.94;;;8.31;78.62
81354;BME280;70810;52.038;8.524;2024-01-30T08:30:06;101299.91;;;8.33;78.52
81354;BME280;70810;52.038;8.524;2024-01-30T08:32:36;101300.00;;;8.30;78.34
81354;BME280;70810;52.038;8.524;2024-01-30T08:35:03;101301.00;;;8.26;77.67
81354;BME280;70810;52.038;8.524;2024-01-30T08:37:47;101305.31;;;8.31;77.76
81354;BME280;70810;52.038;8.524;2024-01-30T08:40:25;101318.44;;;8.42;78.72
81354;BME280;70810;52.038;8.524;2024-01-30T08:42:56;101319.44;;;8.36;77.91
81354;BME280;70810;52.038;8.524;2024-01-30T08:45:24;101318.44;;;8.44;77.98
81354;BME280;70810;52.038;8.524;2024-01-30T08:47:51;101321.94;;;8.46;77.12
81354;BME280;70810;52.038;8.524;2024-01-30T08:50:28;101325.16;;;8.60;76.63
81354;BME280;70810;52.038;8.524;2024-01-30T08:53:05;101317.34;;;8.52;77.02
81354;BME280;70810;52.038;8.524;2024-01-30T08:55:31;101321.59;;;8.61;76.46
81354;BME280;70810;52.038;8.524;2024-01-30T08:57:58;101319.66;;;8.68;76.76
81354;BME280;70810;52.038;8.524;2024-01-30T09:00:25;101318.22;;;8.53;76.48
81354;BME280;70810;52.038;8.524;2024-01-30T09:02:51;101322.56;;;8.57;76.66
81354;BME280;70810;52.038;8.524;2024-01-30T09:05:18;101318.69;;;8.70;77.16
81354;BME280;70810;52.038;8.524;2024-01-30T09:07:45;101325.72;;;8.74;76.50
81354;BME280;70810;52.038;8.524;2024-01-30T09:10:14;101320.88;;;8.90;76.42
81354;BME280;70810;52.038;8.524;2024-01-30T09:12:41;101319.94;;;8.93;75.56
81354;BME280;70810;52.038;8.524;2024-01-30T09:15:08;101324.09;;;9.05;75.34
81354;BME280;70810;52.038;8.524;2024-01-30T09:17:35;101301.66;;;9.09;75.01
81354;BME280;70810;52.038;8.524;2024-01-30T09:20:02;101325.13;;;9.33;74.83
81354;BME280;70810;52.038;8.524;2024-01-30T09:22:30;101322.53;;;9.30;74.04
81354;BME280;70810;52.038;8.524;2024-01-30T09:24:58;101323.38;;;9.64;73.58
81354;BME280;70810;52.038;8.524;2024-01-30T09:27:37;101323.09;;;9.75;72.56
81354;BME280;70810;52.038;8.524;2024-01-30T09:30:08;101324.00;;;9.74;72.85
81354;BME280;70810;52.038;8.524;2024-01-30T09:32:35;101338.22;;;9.76;72.50
81354;BME280;70810;52.038;8.524;2024-01-30T09:35:02;101324.72;;;9.80;72.10
81354;BME280;70810;52.038;8.524;2024-01-30T09:37:34;101315.75;;;9.81;72.40
81354;BME280;70810;52.038;8.524;2024-01-30T09:40:31;101320.56;;;9.68;73.34
81354;BME280;70810;52.038;8.524;2024-01-30T09:43:17;101325.84;;;9.71;72.34
81354;BME280;70810;52.038;8.524;2024-01-30T09:45:50;101323.38;;;9.64;73.50
81354;BME280;70810;52.038;8.524;2024-01-30T09:48:18;101316.19;;;9.66;73.69
81354;BME280;70810;52.038;8.524;2024-01-30T09:50:51;101322.91;;;9.81;72.24
81354;BME280;70810;52.038;8.524;2024-01-30T09:53:23;101320.97;;;9.86;72.75
81354;BME280;70810;52.038;8.524;2024-01-30T09:55:53;101320.78;;;9.92;71.88
81354;BME280;70810;52.038;8.524;2024-01-30T09:58:21;101319.44;;;9.77;72.72
81354;BME280;70810;52.038;8.524;2024-01-30T10:00:48;101321.78;;;9.57;73.00
81354;BME280;70810;52.038;8.524;2024-01-30T10:03:15;101327.44;;;9.79;72.29
81354;BME280;70810;52.038;8.524;2024-01-30T10:05:46;101325.31;;;9.90;72.03
81354;BME280;70810;52.038;8.524;2024-01-30T10:08:17;101323.84;;;9.80;72.68
81354;BME280;70810;52.038;8.524;2024-01-30T10:10:45;101325.91;;;9.70;72.82
81354;BME280;70810;52.038;8.524;2024-01-30T10:13:12;101323.91;;;9.77;72.26
81354;BME280;70810;52.038;8.524;2024-01-30T10:15:40;101319.31;;;9.82;72.49
81354;BME280;70810;52.038;8.524;2024-01-30T10:18:08;101325.69;;;9.78;72.36
81354;BME280;70810;52.038;8.524;2024-01-30T10:20:35;101317.53;;;9.81;72.11
81354;BME280;70810;52.038;8.524;2024-01-30T10:23:02;101323.50;;;9.90;72.49
81354;BME280;70810;52.038;8.524;2024-01-30T10:25:30;101326.97;;;9.94;72.84
81354;BME280;70810;52.038;8.524;2024-01-30T10:27:58;101321.50;;;9.99;72.28
81354;BME280;70810;52.038;8.524;2024-01-30T10:30:26;101326.00;;;9.98;72.84
81354;BME280;70810;52.038;8.524;2024-01-30T10:32:57;101320.81;;;10.22;72.08
81354;BME280;70810;52.038;8.524;2024-01-30T10:35:24;101318.41;;;10.42;71.47
81354;BME280;70810;52.038;8.524;2024-01-30T10:37:51;101316.56;;;10.44;71.36
81354;BME280;70810;52.038;8.524;2024-01-30T10:40:21;101311.38;;;10.08;71.65
81354;BME280;70810;52.038;8.524;2024-01-30T10:42:55;101313.78;;;10.48;71.00
81354;BME280;70810;52.038;8.524;2024-01-30T10:45:22;101305.06;;;10.41;71.21
81354;BME280;70810;52.038;8.524;2024-01-30T10:47:50;101308.59;;;10.41;71.54
81354;BME280;70810;52.038;8.524;2024-01-30T10:50:21;101300.66;;;10.38;70.87
81354;BME280;70810;52.038;8.524;2024-01-30T10:52:50;101297.44;;;10.55;70.75
81354;BME280;70810;52.038;8.524;2024-01-30T10:55:18;101301.88;;;10.56;70.87
81354;BME280;70810;52.038;8.524;2024-01-30T10:57:47;101280.81;;;10.71;71.15
81354;BME280;70810;52.038;8.524;2024-01-30T11:00:24;101275.75;;;10.90;70.05
81354;BME280;70810;52.038;8.524;2024-01-30T11:02:52;101283.16;;;10.81;70.50
81354;BME280;70810;52.038;8.524;2024-01-30T11:05:25;101274.72;;;10.66;70.95
81354;BME280;70810;52.038;8.524;2024-01-30T11:07:54;101281.13;;;10.90;70.26
81354;BME280;70810;52.038;8.524;2024-01-30T11:10:21;101264.06;;;10.91;70.53
81354;BME280;70810;52.038;8.524;2024-01-30T11:12:51;101269.84;;;11.05;70.47
81354;BME280;70810;52.038;8.524;2024-01-30T11:15:18;101268.03;;;11.31;69.63
81354;BME280;70810;52.038;8.524;2024-01-30T11:17:54;101266.00;;;11.12;69.95
81354;BME280;70810;52.038;8.524;2024-01-30T11:20:29;101271.16;;;11.18;69.91
81354;BME280;70810;52.038;8.524;2024-01-30T11:26:17;101274.31;;;11.30;69.46
81354;BME280;70810;52.038;8.524;2024-01-30T11:29:03;101272.03;;;11.19;70.02
81354;BME280;70810;52.038;8.524;2024-01-30T11:31:31;101272.69;;;11.00;70.44
81354;BME280;70810;52.038;8.524;2024-01-30T11:34:10;101276.19;;;11.02;70.83
81354;BME280;70810;52.038;8.524;2024-01-30T11:37:22;101262.91;;;10.98;70.95
81354;BME280;70810;52.038;8.524;2024-01-30T11:39:55;101259.50;;;10.93;71.35
81354;BME280;70810;52.038;8.524;2024-01-30T11:42:32;101265.50;;;11.01;71.29
81354;BME280;70810;52.038;8.524;2024-01-30T11:45:06;101257.78;;;11.17;70.82
81354;BME280;70810;52.038;8.524;2024-01-30T11:47:35;101260.69;;;11.11;71.13
81354;BME280;70810;52.038;8.524;2024-01-30T11:50:03;101261.72;;;11.32;70.23
81354;BME280;70810;52.038;8.524;2024-01-30T11:52:33;101263.88;;;11.22;70.91
81354;BME280;70810;52.038;8.524;2024-01-30T11:55:08;101266.00;;;11.12;71.13
81354;BME280;70810;52.038;8.524;2024-01-30T11:57:47;101266.66;;;11.19;71.08
81354;BME280;70810;52.038;8.524;2024-01-30T12:00:15;101263.25;;;11.14;71.14
81354;BME280;70810;52.038;8.524;2024-01-30T12:02:49;101256.47;;;11.29;71.04
81354;BME280;70810;52.038;8.524;2024-01-30T12:05:16;101266.72;;;11.17;71.21
81354;BME280;70810;52.038;8.524;2024-01-30T12:07:46;101253.59;;;11.08;71.27
81354;BME280;70810;52.038;8.524;2024-01-30T12:10:14;101275.53;;;11.21;71.72
81354;BME280;70810;52.038;8.524;2024-01-30T12:12:57;101277.06;;;11.28;70.85
81354;BME280;70810;52.038;8.524;2024-01-30T12:15:38;101278.78;;;11.31;71.00
81354;BME280;70810;52.038;8.524;2024-01-30T12:18:11;101271.63;;;11.30;70.75
81354;BME280;70810;52.038;8.524;2024-01-30T12:21:33;101275.94;;;11.35;70.81
81354;BME280;70810;52.038;8.524;2024-01-30T12:24:18;101278.69;;;11.34;71.02
81354;BME280;70810;52.038;8.524;2024-01-30T12:26:46;101284.19;;;11.29;71.21
81354;BME280;70810;52.038;8.524;2024-01-30T12:29:14;101282.38;;;11.30;71.09
81354;BME280;70810;52.038;8.524;2024-01-30T12:31:46;101286.59;;;11.37;70.89
81354;BME280;70810;52.038;8.524;2024-01-30T12:34:17;101303.50;;;11.41;70.92
81354;BME280;70810;52.038;8.524;2024-01-30T12:36:46;101286.94;;;11.28;71.22
81354;BME280;70810;52.038;8.524;2024-01-30T12:39:20;101291.25;;;11.32;71.37
81354;BME280;70810;52.038;8.524;2024-01-30T12:41:53;101299.13;;;11.38;70.81
81354;BME280;70810;52.038;8.524;2024-01-30T12:44:39;101287.69;;;11.56;70.62
81354;BME280;70810;52.038;8.524;2024-01-30T12:47:22;101300.28;;;11.56;70.72
81354;BME280;70810;52.038;8.524;2024-01-30T12:50:02;101297.28;;;11.64;70.69
81354;BME280;70810;52.038;8.524;2024-01-30T12:52:35;101296.38;;;11.65;70.47
81354;BME280;70810;52.038;8.524;2024-01-30T12:55:19;101300.31;;;11.54;70.84
81354;BME280;70810;52.038;8.524;2024-01-30T12:57:48;101291.56;;;11.49;70.79
81354;BME280;70810;52.038;8.524;2024-01-30T13:00:15;101304.75;;;11.55;70.94
81354;BME280;70810;52.038;8.524;2024-01-30T13:02:45;101295.31;;;11.44;71.32
81354;BME280;70810;52.038;8.524;2024-01-30T13:05:14;101311.69;;;11.63;71.07
81354;BME280;70810;52.038;8.524;2024-01-30T13:07:42;101302.38;;;11.71;71.21
81354;BME280;70810;52.038;8.524;2024-01-30T13:10:15;101308.63;;;11.72;70.66
81354;BME280;70810;52.038;8.524;2024-01-30T13:12:47;101309.34;;;11.77;70.63
81354;BME280;70810;52.038;8.524;2024-01-30T13:15:24;101317.63;;;11.71;71.13
81354;BME280;70810;52.038;8.524;2024-01-30T13:18:05;101318.50;;;11.71;71.37
81354;BME280;70810;52.038;8.524;2024-01-30T13:20:37;101313.91;;;11.75;71.29
81354;BME280;70810;52.038;8.524;2024-01-30T13:23:09;101305.25;;;11.90;70.95